Предлагаем Вашему вниманию английскую версию страницы: AUTOTAF.ME 34930 - aviation weather forecast Krasnodar (Yenem)

AUTOTAF 34930 - авиапрогноз Краснодар (Энем)

Сегодня рассвет 03:23 UTC, восход солнца 03:53 UTC,
местный полдень 09:08 UTC, заход солнца 14:23 UTC,
наступление темноты 14:53 UTC.

Краткий прогноз 34930 на 9 часов

AUTOTAF.ME 34930 241400Z 2415/2424 22003MPS CAVOK     
  BECMG 2419/2421 VRB02MPS

Детальный прогноз 34930 на 24 часа

AUTOTAF.ME 34930 241400Z 2415/2515 22003MPS 9999 SKC TX24/2512Z TN14/2503Z   
  BECMG 2419/2421 VRB02MPS      
  BECMG 2510/2512 32003MPS  
  BECMG 2513/2515 VRB02MPS

Подробный табличный прогноз

Время (UTC) miniAUTOTAF на 3 ч WX FZLVL
M AGL
ICE TURB Т
(°С)
Тd
(°С)
f(%) QNH
(гПа)
WIND/T
12 23004MPS 9999 SKC 3900 MOD SFC/FL20 23 7 35 1018 ...
15 22003MPS 9999 SKC 3900 19 6 43 1017 ...
18 VRB02MPS 9999 SKC 3900 17 7 53 1018 ...
21 VRB02MPS 9999 SKC 3600 15 5 51 1017 ...
25.10.2020
00 VRB02MPS 9999 SKC 3600 15 2 42 1017 ...
03 VRB02MPS 9999 SKC 3600 14 4 49 1017 ...
06 VRB02MPS 9999 SCT320 3600 16 5 46 1018 ...
09 VRB02MPS 9999 SCT370 3300 MOD SFC/FL20 22 5 34 1017 ...
12 32003MPS 9999 FEW370 3300 MOD SFC/FL20 24 4 29 1017 ...
15 VRB02MPS 9999 BKN280 3300 MOD FL20/FL30 20 9 48 1016 ...
18 VRB02MPS 9999 BKN270 3300 MOD FL120/FL150 MOD FL90/FL100 18 11 62 1018 ...
21 08003MPS 9999 SCT103TCU 3300 17 11 67 1017 ...
26.10.2020
00 08003MPS 9999 OVC260 3300 16 10 70 1018 ...
03 08004MPS 9999 SCT122 3300 15 10 73 1017 ...
06 07004MPS 9999 SCT123 3300 16 10 67 1018 ...
09 08007MPS 9999 OVC280 3300 MOD SFC/FL20 20 8 46 1017 ...


Широта 44.9°, долгота 38.9°, высота 19 м абс.
Средняя высота рельефа местности 25 м абс.
Прогнозы обновляются четыре раза в сутки: в 02, 08, 14, 20 ч всемирного времени.


Выбрать прогноз по другой модели Краснодар (Энем)
Онлайн-сводка гроз по Краснодар (Энем) (для РФ и ближнего зарубежья)
Карта фактических гроз в окрестностях Краснодар (Энем)
Динамические прогностические карты (ventusky.com)
Прогностическая карта высоты нижней границы облаков по Краснодар (Энем) (windy.com)
Выбрать другой город

Прогноз предназначен для личного научно-познавательного использования частными лицами
и не предназначен для принятия важных решений и выполнения реальных полётов воздушных судов

При копировании или ином использовании любых материалов данного сайта ссылка на © meteocenter.asia обязательна.

0.87/1.2